KFBR

Details ICAO KFBR
Name Fort Bridger
Region United States
Timezone America/Denver (UTC-7.0)
Plans Departing 0
Arriving 3
Stats Elevation 7,034 ft / 2,144 m (AMSL)
Location 41.393196° -110.406485°
Runways 3
Magnetic Variation 10.931° E
Sunrise 2017-12-12 14:40:07 UTC / 2017-12-12 07:40:07 Local
Sunset 2017-12-12 23:53:44 UTC / 2017-12-12 16:53:44 Local
Advertisement - Login to hide

Runways

ID Width Length Bearing (true) Bearing (mag) Surface Threshold Offset Overrun Length
04 79 ft / 24 m 6,397 ft / 1,950 m 54.29° 43.36° Asphalt 0 ft / 0 m 0 ft / 0 m
06 79 ft / 24 m 3,728 ft / 1,136 m 78.70° 67.77° Dirt 0 ft / 0 m 0 ft / 0 m
16 59 ft / 18 m 4,559 ft / 1,389 m 180.00° 169.07° Grass 0 ft / 0 m 0 ft / 0 m
22 79 ft / 24 m 6,397 ft / 1,950 m 234.31° 223.38° Asphalt 0 ft / 0 m 0 ft / 0 m
24 79 ft / 24 m 3,728 ft / 1,136 m 258.70° 247.77° Dirt 0 ft / 0 m 0 ft / 0 m
34 59 ft / 18 m 4,559 ft / 1,389 m 0.00° 349.07° Grass 0 ft / 0 m 0 ft / 0 m

Map

Weather


0- 5 10 15 20 25 30 35+ Temperature / ° C

Clouds and Precipitation
Forecast for 2017-12-12 12:00 UTC. Updated 2 hours ago

Ground ~20,000 ft ~40,000 ft Winds

METAR

KFBR 121035Z AUTO 25010KT 10SM CLR 00/M11 A3055 RMK AO2 T00021107

TAF

Not found

Frequencies

Recorded 118.80 MHz AWOS 2
Unicom 122.80 MHz CTAF/UNICOM
Warning: Do not use this data for real-world aviation or navigation. No guarantee of current accuracy is given.